createdAt,value
2017-06-02T00:00:36.143Z,10
2017-06-02T00:01:38.534Z,10
2017-06-02T00:02:40.892Z,5
2017-06-02T00:03:43.287Z,5
2017-06-02T00:04:46.408Z,5
2017-06-02T00:05:48.777Z,5
2017-06-02T00:06:51.150Z,0
2017-06-02T00:07:53.528Z,0
2017-06-02T00:08:55.924Z,0
2017-06-02T00:09:59.048Z,0
2017-06-02T00:11:01.417Z,0
2017-06-02T00:12:03.799Z,0
2017-06-02T00:13:06.155Z,0
2017-06-02T00:14:08.535Z,0
2017-06-02T00:15:11.511Z,0
2017-06-02T00:16:13.889Z,0
2017-06-02T00:17:16.253Z,0
2017-06-02T00:18:18.627Z,0
2017-06-02T00:19:20.977Z,0
2017-06-02T00:20:23.891Z,0
2017-06-02T00:21:26.251Z,0
2017-06-02T00:22:28.633Z,0
2017-06-02T00:23:31.001Z,0
2017-06-02T00:24:33.369Z,0
2017-06-02T00:25:36.276Z,0
2017-06-02T00:26:38.647Z,0
2017-06-02T00:27:41.026Z,0
2017-06-02T00:28:43.393Z,0
2017-06-02T00:29:45.752Z,0
2017-06-02T00:30:48.887Z,0
2017-06-02T00:31:51.247Z,0
2017-06-02T00:32:53.629Z,0
2017-06-02T00:33:56.016Z,0
2017-06-02T00:34:58.374Z,0
2017-06-02T00:36:01.285Z,0
2017-06-02T00:37:03.639Z,0
2017-06-02T00:38:06.016Z,0
2017-06-02T00:39:08.391Z,0
2017-06-02T00:40:10.766Z,0
2017-06-02T00:41:13.728Z,0
2017-06-02T00:42:16.098Z,0
2017-06-02T00:43:18.478Z,0
2017-06-02T00:44:20.858Z,0
2017-06-02T00:45:23.256Z,0
2017-06-02T00:46:26.247Z,0
2017-06-02T00:47:28.603Z,0
2017-06-02T00:48:31.000Z,0
2017-06-02T00:49:33.383Z,0
2017-06-02T00:50:35.764Z,0
2017-06-02T00:51:38.952Z,0
2017-06-02T00:52:41.329Z,0
2017-06-02T00:53:43.702Z,0
2017-06-02T00:54:46.081Z,0
2017-06-02T00:55:48.469Z,0
2017-06-02T00:56:51.457Z,0
2017-06-02T00:57:53.822Z,0
2017-06-02T00:58:56.206Z,0
2017-06-02T00:59:58.583Z,0
2017-06-02T01:01:00.946Z,0
2017-06-02T01:02:03.856Z,0
2017-06-02T01:03:06.213Z,0
2017-06-02T01:04:08.613Z,0
2017-06-02T01:05:10.976Z,0
2017-06-02T01:06:13.340Z,0
2017-06-02T01:07:16.322Z,0
2017-06-02T01:08:18.702Z,0
2017-06-02T01:09:21.074Z,0
2017-06-02T01:10:23.457Z,0
2017-06-02T01:11:25.816Z,0
2017-06-02T01:12:30.691Z,0
2017-06-02T01:13:33.067Z,0
2017-06-02T01:14:35.444Z,0
2017-06-02T01:15:37.816Z,0
2017-06-02T01:16:40.191Z,0
2017-06-02T01:17:43.166Z,0
2017-06-02T01:18:45.526Z,0
2017-06-02T01:19:47.899Z,0
2017-06-02T01:20:50.271Z,0
2017-06-02T01:21:52.672Z,0
2017-06-02T01:22:55.633Z,0
2017-06-02T01:23:57.993Z,0
2017-06-02T01:25:00.376Z,0
2017-06-02T01:26:02.758Z,0
2017-06-02T01:27:05.133Z,0
2017-06-02T01:28:08.094Z,0
2017-06-02T01:29:10.455Z,0
2017-06-02T01:30:12.821Z,0
2017-06-02T01:31:15.399Z,0
2017-06-02T01:32:17.766Z,0
2017-06-02T01:33:20.734Z,0
2017-06-02T01:34:23.112Z,0
2017-06-02T01:35:25.458Z,0
2017-06-02T01:36:27.821Z,0
2017-06-02T01:37:30.179Z,0
2017-06-02T01:38:33.129Z,0
2017-06-02T01:39:35.496Z,0
2017-06-02T01:40:37.880Z,0
2017-06-02T01:41:40.240Z,0
2017-06-02T01:42:42.597Z,0
2017-06-02T01:43:45.550Z,0
2017-06-02T01:44:47.932Z,0
2017-06-02T01:45:50.314Z,0
2017-06-02T01:46:52.696Z,0
2017-06-02T01:47:55.055Z,0
2017-06-02T01:48:58.035Z,0
2017-06-02T01:50:00.395Z,0
2017-06-02T01:51:02.755Z,0
2017-06-02T01:52:05.150Z,0
2017-06-02T01:53:07.524Z,0
2017-06-02T01:54:10.493Z,0
2017-06-02T01:55:12.836Z,0
2017-06-02T01:56:15.200Z,0
2017-06-02T01:57:17.577Z,0
2017-06-02T01:58:19.963Z,0
2017-06-02T01:59:22.932Z,0
2017-06-02T02:00:25.295Z,0
2017-06-02T02:01:27.664Z,0
2017-06-02T02:02:30.040Z,0
2017-06-02T02:03:32.422Z,0
2017-06-02T02:04:35.373Z,0
2017-06-02T02:05:37.730Z,0
2017-06-02T02:06:40.102Z,0
2017-06-02T02:07:42.470Z,0
2017-06-02T02:08:44.857Z,0
2017-06-02T02:09:47.788Z,0
2017-06-02T02:10:50.142Z,0
2017-06-02T02:11:52.504Z,0
2017-06-02T02:12:54.860Z,0
2017-06-02T02:13:57.420Z,0
2017-06-02T02:15:00.342Z,0
2017-06-02T02:16:02.707Z,0
2017-06-02T02:17:05.095Z,0
2017-06-02T02:18:07.467Z,0
2017-06-02T02:19:09.843Z,0
2017-06-02T02:20:12.802Z,0
2017-06-02T02:21:15.157Z,0
2017-06-02T02:22:17.517Z,0
2017-06-02T02:23:19.875Z,0
2017-06-02T02:24:22.242Z,0
2017-06-02T02:25:25.357Z,0
2017-06-02T02:26:27.722Z,0
2017-06-02T02:27:30.083Z,0
2017-06-02T02:28:32.477Z,0
2017-06-02T02:29:34.844Z,0
2017-06-02T02:30:37.836Z,0
2017-06-02T02:31:40.200Z,0
2017-06-02T02:32:42.589Z,0
2017-06-02T02:33:44.948Z,0
2017-06-02T02:34:47.316Z,0
2017-06-02T02:35:50.288Z,0
2017-06-02T02:36:52.666Z,0
2017-06-02T02:37:55.027Z,0
2017-06-02T02:38:57.419Z,0
2017-06-02T02:39:59.774Z,0
2017-06-02T02:41:02.735Z,0
2017-06-02T02:42:05.109Z,0
2017-06-02T02:43:07.479Z,0
2017-06-02T02:44:09.871Z,0
2017-06-02T02:45:12.239Z,0
2017-06-02T02:46:15.147Z,0
2017-06-02T02:47:17.514Z,0
2017-06-02T02:48:20.076Z,0
2017-06-02T02:49:22.446Z,0
2017-06-02T02:50:24.821Z,0
2017-06-02T02:51:27.799Z,0
2017-06-02T02:52:30.165Z,0
2017-06-02T02:53:32.517Z,0
2017-06-02T02:54:34.916Z,0
2017-06-02T02:55:37.275Z,0
2017-06-02T02:56:40.388Z,0
2017-06-02T02:57:42.746Z,0
2017-06-02T02:58:45.117Z,0
2017-06-02T02:59:47.685Z,0
2017-06-02T03:00:50.061Z,0
2017-06-02T03:01:53.012Z,0
2017-06-02T03:02:55.371Z,0
2017-06-02T03:03:57.752Z,0
2017-06-02T03:05:00.131Z,0
2017-06-02T03:06:02.505Z,0
2017-06-02T03:07:05.633Z,0
2017-06-02T03:08:08.009Z,0
2017-06-02T03:09:10.369Z,0
2017-06-02T03:10:12.727Z,0
2017-06-02T03:11:15.093Z,0
2017-06-02T03:12:18.083Z,0
2017-06-02T03:13:20.465Z,0
2017-06-02T03:14:22.864Z,0
2017-06-02T03:15:25.264Z,0
2017-06-02T03:16:27.645Z,0
2017-06-02T03:17:30.571Z,0
2017-06-02T03:18:32.951Z,0
2017-06-02T03:19:35.323Z,0
2017-06-02T03:20:37.692Z,0
2017-06-02T03:21:40.051Z,0
2017-06-02T03:22:43.174Z,0
2017-06-02T03:23:45.547Z,0
2017-06-02T03:24:47.940Z,0
2017-06-02T03:25:50.311Z,0
2017-06-02T03:26:52.694Z,0
2017-06-02T03:27:55.829Z,0
2017-06-02T03:28:58.214Z,0
2017-06-02T03:30:00.604Z,0
2017-06-02T03:31:02.983Z,0
2017-06-02T03:32:05.378Z,0
2017-06-02T03:33:08.515Z,0
2017-06-02T03:34:10.879Z,0
2017-06-02T03:35:13.467Z,0
2017-06-02T03:36:15.833Z,0
2017-06-02T03:37:18.235Z,0
2017-06-02T03:38:21.220Z,0
2017-06-02T03:39:23.583Z,0
2017-06-02T03:40:25.972Z,0
2017-06-02T03:41:28.326Z,0
2017-06-02T03:42:30.719Z,0
2017-06-02T03:43:33.844Z,0
2017-06-02T03:44:36.218Z,0
2017-06-02T03:45:38.586Z,0
2017-06-02T03:46:40.962Z,0
2017-06-02T03:47:43.346Z,0
2017-06-02T03:48:46.306Z,0
2017-06-02T03:49:48.697Z,0
2017-06-02T03:50:51.093Z,0
2017-06-02T03:51:53.465Z,0
2017-06-02T03:52:55.857Z,0
2017-06-02T03:53:58.815Z,0
2017-06-02T03:55:01.198Z,0
2017-06-02T03:56:03.554Z,0
2017-06-02T03:57:05.938Z,0
2017-06-02T03:58:08.320Z,0
2017-06-02T03:59:11.241Z,0
2017-06-02T04:00:13.592Z,0
2017-06-02T04:01:15.955Z,0
2017-06-02T04:02:18.332Z,0
2017-06-02T04:03:20.694Z,0
2017-06-02T04:04:23.606Z,0
2017-06-02T04:05:25.977Z,0
2017-06-02T04:06:28.347Z,0
2017-06-02T04:09:41.599Z,0
2017-06-02T04:10:43.945Z,0
2017-06-02T04:11:46.298Z,0
2017-06-02T04:12:48.641Z,0
2017-06-02T04:13:50.979Z,0
2017-06-02T04:14:54.379Z,0
2017-06-02T04:15:56.721Z,0
2017-06-02T04:16:59.068Z,0
2017-06-02T04:18:01.408Z,0
2017-06-02T04:19:03.755Z,0
2017-06-02T04:20:06.746Z,0
2017-06-02T04:21:09.089Z,0
2017-06-02T04:22:11.433Z,0
2017-06-02T04:23:13.776Z,0
2017-06-02T04:24:16.119Z,0
2017-06-02T04:25:19.115Z,0
2017-06-02T04:26:21.457Z,0
2017-06-02T04:27:23.802Z,0
2017-06-02T04:28:26.142Z,0
2017-06-02T04:29:28.486Z,0
2017-06-02T04:30:32.281Z,0
2017-06-02T04:31:34.619Z,0
2017-06-02T04:32:36.963Z,0
2017-06-02T04:33:39.315Z,0
2017-06-02T04:34:41.655Z,0
2017-06-02T04:35:45.060Z,0
2017-06-02T04:36:47.397Z,0
2017-06-02T04:37:49.739Z,0
2017-06-02T04:38:52.084Z,0
2017-06-02T04:39:54.423Z,0
2017-06-02T04:40:57.820Z,0
2017-06-02T04:42:00.161Z,0
2017-06-02T04:43:02.506Z,0
2017-06-02T04:44:04.853Z,0
2017-06-02T04:45:07.193Z,0
2017-06-02T04:46:10.193Z,0
2017-06-02T04:47:12.531Z,0
2017-06-02T04:48:14.874Z,0
2017-06-02T04:49:17.218Z,0
2017-06-02T04:50:19.562Z,0
2017-06-02T04:51:22.553Z,0
2017-06-02T04:52:24.904Z,0
2017-06-02T04:53:27.242Z,0
2017-06-02T04:54:29.583Z,0
2017-06-02T04:55:31.930Z,0
2017-06-02T04:56:35.320Z,0
2017-06-02T04:57:37.661Z,0
2017-06-02T04:58:40.005Z,0
2017-06-02T04:59:42.351Z,0
2017-06-02T05:00:44.697Z,0
2017-06-02T05:01:47.691Z,0
2017-06-02T05:02:50.034Z,0
2017-06-02T05:03:52.380Z,0
2017-06-02T05:04:54.720Z,0
2017-06-02T05:05:57.062Z,0
2017-06-02T05:07:00.053Z,0
2017-06-02T05:08:02.403Z,0
2017-06-02T05:09:04.737Z,0
2017-06-02T05:10:07.079Z,0
2017-06-02T05:11:09.422Z,0
2017-06-02T05:12:13.021Z,0
2017-06-02T05:13:15.359Z,0
2017-06-02T05:14:17.706Z,0
2017-06-02T05:15:20.050Z,0
2017-06-02T05:16:22.390Z,0
2017-06-02T05:17:25.389Z,0
2017-06-02T05:18:27.729Z,0
2017-06-02T05:19:30.071Z,0
2017-06-02T05:20:32.416Z,0
2017-06-02T05:21:34.757Z,0
2017-06-02T05:22:37.751Z,0
2017-06-02T05:23:40.098Z,0
2017-06-02T05:24:42.437Z,0
2017-06-02T05:25:44.781Z,0
2017-06-02T05:26:47.124Z,0
2017-06-02T05:27:50.114Z,0
2017-06-02T05:28:52.463Z,0
2017-06-02T05:29:54.805Z,0
2017-06-02T05:30:57.151Z,0
2017-06-02T05:31:59.493Z,0
2017-06-02T05:33:02.486Z,0
2017-06-02T05:34:04.829Z,0
2017-06-02T05:35:07.175Z,0
2017-06-02T05:36:09.516Z,0
2017-06-02T05:37:11.859Z,0
2017-06-02T05:38:14.852Z,0
2017-06-02T05:39:17.196Z,0
2017-06-02T05:40:19.538Z,0
2017-06-02T05:41:21.883Z,0
2017-06-02T05:42:24.224Z,0
2017-06-02T05:43:27.617Z,0
2017-06-02T05:44:29.959Z,0
2017-06-02T05:45:32.305Z,0
2017-06-02T05:46:34.648Z,0
2017-06-02T05:47:36.987Z,0
2017-06-02T05:48:40.385Z,0
2017-06-02T05:49:42.727Z,0
2017-06-02T05:50:45.077Z,0
2017-06-02T05:51:47.424Z,0
2017-06-02T05:52:49.764Z,0
2017-06-02T05:53:53.158Z,0
2017-06-02T05:54:55.509Z,0
2017-06-02T05:55:57.852Z,0
2017-06-02T05:57:00.198Z,0
2017-06-02T05:58:02.537Z,0
2017-06-02T05:59:05.932Z,0
2017-06-02T06:00:08.280Z,0
2017-06-02T06:01:10.622Z,0
2017-06-02T06:02:12.966Z,0
2017-06-02T06:03:15.313Z,0
2017-06-02T06:04:18.714Z,0
2017-06-02T06:05:21.051Z,0
2017-06-02T06:06:23.396Z,0
2017-06-02T06:07:25.740Z,0
2017-06-02T06:08:28.085Z,0
2017-06-02T06:09:31.882Z,0
2017-06-02T06:10:34.224Z,0
2017-06-02T06:11:36.570Z,0
2017-06-02T06:12:38.913Z,0
2017-06-02T06:13:41.257Z,0
2017-06-02T06:14:44.655Z,0
2017-06-02T06:15:46.999Z,0
2017-06-02T06:16:49.338Z,0
2017-06-02T06:17:51.683Z,0
2017-06-02T06:18:54.032Z,0
2017-06-02T06:19:57.028Z,0
2017-06-02T06:20:59.370Z,0
2017-06-02T06:22:01.720Z,0
2017-06-02T06:23:04.059Z,0
2017-06-02T06:24:06.403Z,0
2017-06-02T06:25:09.797Z,0
2017-06-02T06:26:12.144Z,0
2017-06-02T06:27:14.488Z,0
2017-06-02T06:28:16.829Z,0
2017-06-02T06:29:19.178Z,0
2017-06-02T06:30:22.573Z,0
2017-06-02T06:31:24.917Z,0
2017-06-02T06:32:27.264Z,0
2017-06-02T06:33:29.608Z,0
2017-06-02T06:51:10.313Z,0
2017-06-02T06:52:12.659Z,0
2017-06-02T06:53:14.999Z,0
2017-06-02T06:54:17.342Z,0
2017-06-02T06:55:19.684Z,0
2017-06-02T06:56:22.678Z,0
2017-06-02T06:57:25.021Z,0
2017-06-02T06:58:27.367Z,0
2017-06-02T06:59:29.703Z,0
2017-06-02T07:00:32.047Z,0
2017-06-02T07:01:35.440Z,0
2017-06-02T07:02:37.781Z,0
2017-06-02T07:03:40.124Z,0
2017-06-02T07:04:42.465Z,0
2017-06-02T07:05:44.805Z,0
2017-06-02T07:06:47.705Z,0
2017-06-02T07:10:19.002Z,0
2017-06-02T07:11:21.342Z,0
2017-06-02T07:12:24.739Z,0
2017-06-02T07:13:27.083Z,0
2017-06-02T07:14:29.424Z,0
2017-06-02T07:15:31.769Z,0
2017-06-02T07:16:34.112Z,0
2017-06-02T07:17:37.104Z,0
2017-06-02T07:18:39.445Z,0
2017-06-02T07:19:41.789Z,0
2017-06-02T07:20:44.130Z,0
2017-06-02T07:22:29.671Z,0
2017-06-02T07:23:32.668Z,0
2017-06-02T07:24:35.013Z,0
2017-06-02T07:25:37.349Z,0
2017-06-02T07:26:39.701Z,0
2017-06-02T07:27:42.039Z,0
2017-06-02T07:28:45.033Z,0
2017-06-02T07:29:47.376Z,0
2017-06-02T07:30:49.718Z,0
2017-06-02T07:31:52.058Z,0
2017-06-02T07:32:54.413Z,0
2017-06-02T07:33:57.349Z,0
2017-06-02T07:34:59.698Z,0
2017-06-02T07:36:21.238Z,0
2017-06-02T07:37:23.590Z,0
2017-06-02T07:38:25.944Z,0
2017-06-02T07:39:29.071Z,0
2017-06-02T07:40:31.414Z,0
2017-06-02T07:41:33.775Z,0
2017-06-02T07:42:36.125Z,0
2017-06-02T07:43:38.483Z,0
2017-06-02T07:44:41.386Z,0
2017-06-02T07:45:43.749Z,0
2017-06-02T07:46:46.106Z,0
2017-06-02T07:47:48.470Z,0
2017-06-02T07:48:50.834Z,0
2017-06-02T07:49:53.786Z,0
2017-06-02T07:50:56.145Z,0
2017-06-02T07:51:58.507Z,0
2017-06-02T07:53:00.858Z,0
2017-06-02T07:54:03.215Z,0
2017-06-02T07:55:06.171Z,0
2017-06-02T07:56:08.552Z,0
2017-06-02T07:57:10.902Z,0
2017-06-02T07:58:13.261Z,0
2017-06-02T07:59:15.613Z,0
2017-06-02T08:00:18.723Z,0
2017-06-02T08:01:21.082Z,0
2017-06-02T08:02:23.431Z,0
2017-06-02T08:03:25.791Z,0
2017-06-02T08:04:28.148Z,0
2017-06-02T08:05:31.111Z,0
2017-06-02T08:06:33.461Z,0
2017-06-02T08:07:35.828Z,0
2017-06-02T08:08:38.184Z,0
2017-06-02T08:09:40.537Z,0
2017-06-02T08:10:43.637Z,0
2017-06-02T08:11:46.000Z,0
2017-06-02T08:12:48.352Z,0
2017-06-02T08:13:50.718Z,0
2017-06-02T08:14:53.079Z,0
2017-06-02T08:15:55.975Z,0
2017-06-02T08:16:58.326Z,0
2017-06-02T08:18:00.681Z,0
2017-06-02T08:19:03.036Z,0
2017-06-02T08:20:05.392Z,0
2017-06-02T08:21:08.295Z,0
2017-06-02T08:22:10.660Z,0
2017-06-02T08:23:13.007Z,0
2017-06-02T08:24:15.370Z,0
2017-06-02T08:25:17.728Z,0
2017-06-02T08:26:22.590Z,0
2017-06-02T08:27:24.957Z,0
2017-06-02T08:28:27.302Z,0
2017-06-02T08:29:29.656Z,0
2017-06-02T08:30:32.026Z,0
2017-06-02T08:31:34.989Z,0
2017-06-02T08:32:37.338Z,0
2017-06-02T08:33:39.695Z,0
2017-06-02T08:34:42.059Z,0
2017-06-02T08:35:44.409Z,0
2017-06-02T08:36:47.320Z,0
2017-06-02T08:37:49.676Z,0
2017-06-02T08:38:52.035Z,0
2017-06-02T08:39:54.393Z,0
2017-06-02T08:40:56.754Z,0
2017-06-02T08:42:00.062Z,0
2017-06-02T08:43:02.416Z,0
2017-06-02T08:44:04.776Z,0
2017-06-02T08:45:07.132Z,0
2017-06-02T08:46:09.482Z,0
2017-06-02T08:47:12.440Z,0
2017-06-02T08:48:15.002Z,0
2017-06-02T08:49:17.362Z,0
2017-06-02T08:50:19.721Z,0
2017-06-02T08:51:22.076Z,0
2017-06-02T08:52:25.040Z,0
2017-06-02T08:53:27.402Z,0
2017-06-02T08:54:29.751Z,0
2017-06-02T08:55:32.105Z,0
2017-06-02T08:56:34.463Z,0
2017-06-02T08:57:37.372Z,0
2017-06-02T08:58:39.731Z,0
2017-06-02T08:59:42.078Z,0
2017-06-02T09:00:44.430Z,0
2017-06-02T09:01:46.791Z,0
2017-06-02T09:02:49.893Z,0
2017-06-02T09:03:52.245Z,0
2017-06-02T09:04:54.602Z,0
2017-06-02T09:05:56.961Z,0
2017-06-02T09:06:59.314Z,0
2017-06-02T09:08:02.266Z,0
2017-06-02T09:09:04.618Z,0
2017-06-02T09:10:06.988Z,0
2017-06-02T09:11:09.341Z,0
2017-06-02T09:12:11.707Z,0
2017-06-02T09:13:14.632Z,0
2017-06-02T09:14:16.970Z,0
2017-06-02T09:15:19.313Z,0
2017-06-02T09:16:21.678Z,0
2017-06-02T09:17:24.038Z,0
2017-06-02T09:18:27.001Z,0
2017-06-02T09:19:29.361Z,0
2017-06-02T09:20:31.712Z,0
2017-06-02T09:21:34.070Z,0
2017-06-02T09:22:36.427Z,0
2017-06-02T09:23:39.336Z,0
2017-06-02T09:24:41.904Z,0
2017-06-02T09:25:44.251Z,0
2017-06-02T09:26:46.605Z,0
2017-06-02T09:27:48.963Z,0
2017-06-02T09:28:51.912Z,0
2017-06-02T09:29:54.267Z,0
2017-06-02T09:30:56.617Z,0
2017-06-02T09:31:58.965Z,0
2017-06-02T09:33:01.328Z,0
2017-06-02T09:34:04.449Z,0
2017-06-02T09:35:06.800Z,0
2017-06-02T09:36:09.161Z,0
2017-06-02T09:37:11.516Z,0
2017-06-02T09:38:14.013Z,0
2017-06-02T09:39:16.915Z,0
2017-06-02T09:40:19.268Z,0
2017-06-02T09:41:21.626Z,0
2017-06-02T09:42:23.982Z,0
2017-06-02T09:43:26.337Z,0
2017-06-02T09:44:29.295Z,0
2017-06-02T09:45:31.646Z,0
2017-06-02T09:46:34.003Z,0
2017-06-02T09:47:36.365Z,0
2017-06-02T09:48:38.719Z,0
2017-06-02T09:49:41.641Z,0
2017-06-02T09:50:43.992Z,0
2017-06-02T09:51:46.349Z,0
2017-06-02T09:52:48.915Z,0
2017-06-02T09:53:51.275Z,0
2017-06-02T09:54:56.145Z,0
2017-06-02T09:55:58.493Z,0
2017-06-02T09:57:00.850Z,0
2017-06-02T09:58:03.207Z,0
2017-06-02T09:59:05.582Z,0
2017-06-02T10:00:08.531Z,0
2017-06-02T10:01:10.886Z,0
2017-06-02T10:02:13.245Z,0
2017-06-02T10:03:15.600Z,0
2017-06-02T10:04:17.955Z,0
2017-06-02T10:05:20.962Z,0
2017-06-02T10:06:23.316Z,0
2017-06-02T10:07:25.681Z,0
2017-06-02T10:08:28.031Z,0
2017-06-02T10:09:30.379Z,0
2017-06-02T10:10:33.687Z,0
2017-06-02T10:11:36.057Z,0
2017-06-02T10:12:38.409Z,0
2017-06-02T10:13:40.758Z,0
2017-06-02T10:14:43.119Z,0
2017-06-02T10:15:46.086Z,0
2017-06-02T10:16:48.435Z,0
2017-06-02T10:17:50.805Z,0
2017-06-02T10:18:53.156Z,0
2017-06-02T10:19:55.510Z,0
2017-06-02T10:20:58.619Z,0
2017-06-02T10:22:00.972Z,0
2017-06-02T10:23:03.335Z,0
2017-06-02T10:24:05.692Z,0
2017-06-02T10:25:08.051Z,0
2017-06-02T10:26:10.961Z,0
2017-06-02T10:27:13.321Z,0
2017-06-02T10:28:15.678Z,0
2017-06-02T10:29:18.040Z,0
2017-06-02T10:30:20.393Z,0
2017-06-02T10:31:23.502Z,0
2017-06-02T10:32:25.864Z,0
2017-06-02T10:33:28.221Z,0
2017-06-02T10:34:30.582Z,0
2017-06-02T10:35:32.928Z,0
2017-06-02T10:36:35.881Z,0
2017-06-02T10:37:38.240Z,0
2017-06-02T10:38:40.589Z,0
2017-06-02T10:39:42.946Z,0
2017-06-02T10:40:45.315Z,0
2017-06-02T10:41:48.268Z,0
2017-06-02T10:42:50.635Z,0
2017-06-02T10:43:52.989Z,0
2017-06-02T10:44:55.349Z,0
2017-06-02T10:45:57.714Z,0
2017-06-02T10:47:00.620Z,0
2017-06-02T10:48:02.989Z,0
2017-06-02T10:49:05.344Z,0
2017-06-02T10:50:07.698Z,0
2017-06-02T10:51:10.055Z,0
2017-06-02T10:52:13.005Z,0
2017-06-02T10:53:15.392Z,0
2017-06-02T10:54:17.719Z,0
2017-06-02T10:55:20.070Z,0
2017-06-02T10:56:22.439Z,0
2017-06-02T10:57:25.537Z,0
2017-06-02T10:58:27.888Z,0
2017-06-02T10:59:30.253Z,0
2017-06-02T11:00:32.611Z,0
2017-06-02T11:01:34.967Z,0
2017-06-02T11:02:38.023Z,0
2017-06-02T11:03:40.572Z,0
2017-06-02T11:04:42.932Z,0
2017-06-02T11:05:45.289Z,0
2017-06-02T11:06:47.648Z,0
2017-06-02T11:07:50.763Z,0
2017-06-02T11:08:53.125Z,0
2017-06-02T11:09:55.490Z,0
2017-06-02T11:10:57.839Z,0
2017-06-02T11:12:00.202Z,0
2017-06-02T11:13:03.113Z,0
2017-06-02T11:14:05.465Z,0
2017-06-02T11:15:07.823Z,0
2017-06-02T11:16:10.181Z,0
2017-06-02T11:17:12.538Z,0
2017-06-02T11:18:15.492Z,0
2017-06-02T11:19:17.849Z,0
2017-06-02T11:20:20.202Z,0
2017-06-02T11:21:22.564Z,0
2017-06-02T11:22:24.917Z,0
2017-06-02T11:23:27.822Z,0
2017-06-02T11:24:30.182Z,0
2017-06-02T11:25:32.536Z,0
2017-06-02T11:26:34.891Z,0
2017-06-02T11:27:37.250Z,0
2017-06-02T11:28:40.353Z,0
2017-06-02T11:29:42.710Z,0
2017-06-02T11:30:45.061Z,0
2017-06-02T11:31:47.417Z,0
2017-06-02T11:32:49.784Z,0
2017-06-02T11:33:52.686Z,0
2017-06-02T11:34:55.038Z,0
2017-06-02T11:35:57.387Z,0
2017-06-02T11:36:59.749Z,0
2017-06-02T11:38:02.117Z,0
2017-06-02T11:39:05.068Z,0
2017-06-02T11:40:07.424Z,0
2017-06-02T11:41:09.783Z,0
2017-06-02T11:42:12.137Z,0
2017-06-02T11:43:14.497Z,0
2017-06-02T11:44:17.511Z,0
2017-06-02T11:45:19.819Z,0
2017-06-02T11:46:22.172Z,5
2017-06-02T11:47:24.531Z,5
2017-06-02T11:48:26.883Z,5
2017-06-02T11:49:29.794Z,5
2017-06-02T11:50:32.148Z,10
2017-06-02T11:51:34.514Z,10
2017-06-02T11:52:36.863Z,15
2017-06-02T11:53:39.228Z,15
2017-06-02T11:54:42.181Z,15
2017-06-02T11:55:44.541Z,20
2017-06-02T11:56:46.908Z,25
2017-06-02T11:57:49.266Z,25
2017-06-02T11:58:51.615Z,30
2017-06-02T11:59:54.535Z,30
2017-06-02T12:00:56.898Z,35
2017-06-02T12:01:59.267Z,40
2017-06-02T12:03:01.625Z,40
2017-06-02T12:04:03.987Z,45
2017-06-02T12:05:06.900Z,50
2017-06-02T12:06:09.263Z,55
2017-06-02T12:07:11.625Z,55
2017-06-02T12:08:13.989Z,60
2017-06-02T12:09:16.359Z,65
2017-06-02T12:10:19.325Z,70
2017-06-02T12:11:21.680Z,75
2017-06-02T12:12:24.048Z,85
2017-06-02T12:13:26.397Z,100
2017-06-02T12:14:28.761Z,105
2017-06-02T12:15:31.662Z,110
2017-06-02T12:16:34.021Z,115
2017-06-02T12:17:36.386Z,120
2017-06-02T12:18:38.742Z,130
2017-06-02T12:19:41.104Z,135
2017-06-02T12:20:44.214Z,140
2017-06-02T12:21:46.576Z,145
2017-06-02T12:22:48.928Z,145
2017-06-02T12:23:51.297Z,150
2017-06-02T12:24:53.660Z,155
2017-06-02T12:25:56.565Z,165
2017-06-02T12:26:58.931Z,165
2017-06-02T12:28:01.294Z,170
2017-06-02T12:29:03.654Z,180
2017-06-02T12:30:06.012Z,180
2017-06-02T12:31:08.984Z,190
2017-06-02T12:32:11.354Z,195
2017-06-02T12:33:13.714Z,200
2017-06-02T12:34:16.076Z,210
2017-06-02T12:35:18.440Z,215
2017-06-02T12:36:21.351Z,215
2017-06-02T12:37:23.723Z,220
2017-06-02T12:38:26.077Z,220
2017-06-02T12:39:28.446Z,225
2017-06-02T12:40:30.804Z,230
2017-06-02T12:41:33.766Z,235
2017-06-02T12:42:36.134Z,235
2017-06-02T12:43:38.506Z,245
2017-06-02T12:44:40.859Z,245
2017-06-02T12:45:43.223Z,245
2017-06-02T12:46:46.139Z,250
2017-06-02T12:47:48.506Z,260
2017-06-02T12:48:50.870Z,270
2017-06-02T12:49:53.230Z,280
2017-06-02T12:50:55.594Z,290
2017-06-02T12:51:58.510Z,305
2017-06-02T12:53:00.868Z,330
2017-06-02T12:54:03.237Z,365
2017-06-02T12:55:05.599Z,400
2017-06-02T12:56:07.964Z,440
2017-06-02T12:57:10.885Z,470
2017-06-02T12:58:13.249Z,485
2017-06-02T12:59:15.613Z,500
2017-06-02T13:00:17.977Z,525
2017-06-02T13:01:20.341Z,545
2017-06-02T13:02:23.250Z,555
2017-06-02T13:03:25.616Z,565
2017-06-02T13:04:27.992Z,510
2017-06-02T13:05:30.345Z,555
2017-06-02T13:06:32.711Z,425
2017-06-02T13:07:35.633Z,595
2017-06-02T13:08:37.988Z,520
2017-06-02T13:09:40.351Z,545
2017-06-02T13:10:42.719Z,620
2017-06-02T13:11:45.081Z,595
2017-06-02T13:12:48.000Z,680
2017-06-02T13:13:50.363Z,695
2017-06-02T13:14:52.731Z,685
2017-06-02T13:15:55.096Z,625
2017-06-02T13:16:57.459Z,655
2017-06-02T13:18:00.389Z,595
2017-06-02T13:19:02.749Z,570
2017-06-02T13:20:05.114Z,555
2017-06-02T13:21:07.488Z,560
2017-06-02T13:22:09.847Z,590
2017-06-02T13:23:12.970Z,580
2017-06-02T13:24:15.352Z,595
2017-06-02T13:25:17.715Z,605
2017-06-02T13:26:20.089Z,585
2017-06-02T13:27:22.457Z,590
2017-06-02T13:28:25.434Z,595
2017-06-02T13:29:27.804Z,620
2017-06-02T13:30:30.165Z,705
2017-06-02T13:31:32.535Z,700
2017-06-02T13:32:34.897Z,780
2017-06-02T13:33:37.820Z,895
2017-06-02T13:34:40.188Z,920
2017-06-02T13:35:42.551Z,885
2017-06-02T13:36:44.915Z,900
2017-06-02T13:37:47.284Z,1000
2017-06-02T13:38:50.216Z,915
2017-06-02T13:39:52.573Z,795
2017-06-02T13:40:54.943Z,960
2017-06-02T13:41:57.311Z,1030
2017-06-02T13:42:59.685Z,915
2017-06-02T13:44:02.654Z,915
2017-06-02T13:45:05.021Z,965
2017-06-02T13:46:07.395Z,1015
2017-06-02T13:47:09.755Z,1270
2017-06-02T13:48:12.137Z,1280
2017-06-02T13:49:15.048Z,1220
2017-06-02T13:50:17.423Z,1265
2017-06-02T13:51:19.785Z,1320
2017-06-02T13:52:22.154Z,1395
2017-06-02T13:53:24.521Z,785
2017-06-02T13:54:27.438Z,1235
2017-06-02T13:55:29.802Z,865
2017-06-02T13:56:32.174Z,725
2017-06-02T13:57:35.052Z,730
2017-06-02T13:58:37.913Z,685
2017-06-02T13:59:40.837Z,660
2017-06-02T14:00:43.204Z,655
2017-06-02T14:01:46.071Z,640
2017-06-02T14:02:48.442Z,725
2017-06-02T14:03:50.809Z,765
2017-06-02T14:04:53.724Z,790
2017-06-02T14:05:56.594Z,790
2017-06-02T14:06:58.962Z,775
2017-06-02T14:08:01.832Z,760
2017-06-02T14:09:04.198Z,735
2017-06-02T14:10:07.115Z,730
2017-06-02T14:11:09.479Z,730
2017-06-02T14:12:11.853Z,740
2017-06-02T14:13:14.227Z,740
2017-06-02T14:14:16.592Z,710
2017-06-02T14:15:19.507Z,690
2017-06-02T14:16:21.879Z,685
2017-06-02T14:17:24.255Z,685
2017-06-02T14:18:27.119Z,670
2017-06-02T14:19:29.484Z,650
2017-06-02T14:20:32.397Z,650
2017-06-02T14:21:34.772Z,645
2017-06-02T14:22:37.148Z,625
2017-06-02T14:23:39.513Z,615
2017-06-02T14:24:41.877Z,615
2017-06-02T14:25:44.844Z,620
2017-06-02T14:26:47.209Z,630
2017-06-02T14:27:49.586Z,635
2017-06-02T14:28:51.955Z,665
2017-06-02T14:29:54.341Z,695
2017-06-02T14:30:57.311Z,725
2017-06-02T14:31:59.671Z,740
2017-06-02T14:33:02.037Z,750
2017-06-02T14:34:04.409Z,755
2017-06-02T14:35:06.778Z,765
2017-06-02T14:36:09.849Z,760
2017-06-02T14:37:12.216Z,730
2017-06-02T14:38:14.584Z,710
2017-06-02T14:39:16.947Z,690
2017-06-02T14:40:19.317Z,675
2017-06-02T14:41:22.385Z,685
2017-06-02T14:42:24.763Z,685
2017-06-02T14:43:27.741Z,690
2017-06-02T14:44:30.595Z,680
2017-06-02T14:45:32.959Z,660
2017-06-02T14:46:35.876Z,645
2017-06-02T14:47:38.752Z,635
2017-06-02T14:48:41.121Z,630
2017-06-02T14:49:43.984Z,625
2017-06-02T14:50:46.853Z,625
2017-06-02T14:51:49.767Z,620
2017-06-02T14:52:52.663Z,610
2017-06-02T14:53:55.511Z,600
2017-06-02T14:54:58.384Z,595
2017-06-02T14:56:00.746Z,595
2017-06-02T14:57:03.810Z,600
2017-06-02T14:58:06.683Z,610
2017-06-02T14:59:09.623Z,610
2017-06-02T15:00:12.422Z,605
2017-06-02T15:01:15.285Z,600
2017-06-02T15:02:18.252Z,585
2017-06-02T15:03:21.162Z,575
2017-06-02T15:04:24.066Z,575
2017-06-02T15:05:28.130Z,570
2017-06-02T15:06:31.935Z,565
2017-06-02T15:07:35.740Z,575
2017-06-02T15:08:39.681Z,595
2017-06-02T15:09:43.697Z,610
2017-06-02T15:10:47.399Z,610
2017-06-02T15:11:50.767Z,585
2017-06-02T15:12:54.724Z,560
2017-06-02T15:13:57.531Z,550
2017-06-02T15:15:01.314Z,550
2017-06-02T15:16:05.276Z,550
2017-06-02T15:17:09.074Z,555
2017-06-02T15:18:12.677Z,535
2017-06-02T15:19:16.723Z,535
2017-06-02T15:20:19.985Z,530
2017-06-02T15:21:22.892Z,525
2017-06-02T15:22:26.621Z,505
2017-06-02T15:23:30.377Z,505
2017-06-02T15:24:33.904Z,540
2017-06-02T15:25:36.621Z,540
2017-06-02T15:26:39.428Z,580
2017-06-02T15:27:42.295Z,605
2017-06-02T15:28:45.212Z,625
2017-06-02T15:29:48.080Z,635
2017-06-02T15:30:50.952Z,650